sensor_id;sensor_type;location;lat;lon;timestamp;pressure;altitude;pressure_sealevel;temperature
74915;BMP280;63475;45.140;-75.616;2023-04-24T00:00:07;100418.16;;;12.11
74915;BMP280;63475;45.140;-75.616;2023-04-24T00:01:10;100410.69;;;12.06
74915;BMP280;63475;45.140;-75.616;2023-04-24T00:02:13;100416.66;;;12.10
74915;BMP280;63475;45.140;-75.616;2023-04-24T00:03:14;100419.00;;;12.08
74915;BMP280;63475;45.140;-75.616;2023-04-24T00:04:15;100421.31;;;12.06
74915;BMP280;63475;45.140;-75.616;2023-04-24T00:05:17;100396.91;;;11.95
74915;BMP280;63475;45.140;-75.616;2023-04-24T00:06:18;100421.31;;;12.06
74915;BMP280;63475;45.140;-75.616;2023-04-24T00:07:19;100419.06;;;12.05
74915;BMP280;63475;45.140;-75.616;2023-04-24T00:08:20;100425.13;;;12.05
74915;BMP280;63475;45.140;-75.616;2023-04-24T00:09:23;100418.31;;;12.04
74915;BMP280;63475;45.140;-75.616;2023-04-24T00:10:25;100432.78;;;12.03
74915;BMP280;63475;45.140;-75.616;2023-04-24T00:11:26;100424.06;;;12.03
74915;BMP280;63475;45.140;-75.616;2023-04-24T00:12:27;100429.00;;;12.00
74915;BMP280;63475;45.140;-75.616;2023-04-24T00:13:28;100430.91;;;12.00
74915;BMP280;63475;45.140;-75.616;2023-04-24T00:14:32;100434.72;;;11.99
74915;BMP280;63475;45.140;-75.616;2023-04-24T00:15:35;100434.41;;;11.97
74915;BMP280;63475;45.140;-75.616;2023-04-24T00:16:36;100419.81;;;11.89
74915;BMP280;63475;45.140;-75.616;2023-04-24T00:17:37;100425.41;;;11.91
74915;BMP280;63475;45.140;-75.616;2023-04-24T00:18:38;100432.16;;;11.95
74915;BMP280;63475;45.140;-75.616;2023-04-24T00:19:39;100433.72;;;11.93
74915;BMP280;63475;45.140;-75.616;2023-04-24T00:20:40;100424.34;;;11.88
74915;BMP280;63475;45.140;-75.616;2023-04-24T00:21:43;100437.94;;;11.90
74915;BMP280;63475;45.140;-75.616;2023-04-24T00:22:44;100433.06;;;11.89
74915;BMP280;63475;45.140;-75.616;2023-04-24T00:23:45;100434.63;;;11.86
74915;BMP280;63475;45.140;-75.616;2023-04-24T00:24:46;100435.78;;;11.85
74915;BMP280;63475;45.140;-75.616;2023-04-24T00:25:46;100430.97;;;11.80
74915;BMP280;63475;45.140;-75.616;2023-04-24T00:26:47;100438.88;;;11.84
74915;BMP280;63475;45.140;-75.616;2023-04-24T00:27:48;100432.06;;;11.83
74915;BMP280;63475;45.140;-75.616;2023-04-24T00:28:49;100440.84;;;11.80
74915;BMP280;63475;45.140;-75.616;2023-04-24T00:29:50;100435.53;;;11.80
74915;BMP280;63475;45.140;-75.616;2023-04-24T00:30:51;100442.44;;;11.77
74915;BMP280;63475;45.140;-75.616;2023-04-24T00:31:52;100431.63;;;11.68
74915;BMP280;63475;45.140;-75.616;2023-04-24T00:32:53;100424.19;;;11.59
74915;BMP280;63475;45.140;-75.616;2023-04-24T00:33:54;100430.59;;;11.62
74915;BMP280;63475;45.140;-75.616;2023-04-24T00:34:55;100439.94;;;11.70
74915;BMP280;63475;45.140;-75.616;2023-04-24T00:35:56;100438.44;;;11.69
74915;BMP280;63475;45.140;-75.616;2023-04-24T00:36:56;100447.56;;;11.68
74915;BMP280;63475;45.140;-75.616;2023-04-24T00:37:57;100445.69;;;11.65
74915;BMP280;63475;45.140;-75.616;2023-04-24T00:38:58;100449.16;;;11.62
74915;BMP280;63475;45.140;-75.616;2023-04-24T00:40:00;100446.56;;;11.58
74915;BMP280;63475;45.140;-75.616;2023-04-24T00:41:00;100447.31;;;11.59
74915;BMP280;63475;45.140;-75.616;2023-04-24T00:42:01;100440.19;;;11.56
74915;BMP280;63475;45.140;-75.616;2023-04-24T00:43:02;100423.44;;;11.43
74915;BMP280;63475;45.140;-75.616;2023-04-24T00:44:04;100449.31;;;11.55
74915;BMP280;63475;45.140;-75.616;2023-04-24T00:45:05;100453.53;;;11.52
74915;BMP280;63475;45.140;-75.616;2023-04-24T00:46:06;100448.22;;;11.52
74915;BMP280;63475;45.140;-75.616;2023-04-24T00:47:07;100434.84;;;11.40
74915;BMP280;63475;45.140;-75.616;2023-04-24T00:48:08;100457.41;;;11.48
74915;BMP280;63475;45.140;-75.616;2023-04-24T00:49:09;100433.44;;;11.35
74915;BMP280;63475;45.140;-75.616;2023-04-24T00:50:11;100457.41;;;11.48
74915;BMP280;63475;45.140;-75.616;2023-04-24T00:51:13;100442.78;;;11.40
74915;BMP280;63475;45.140;-75.616;2023-04-24T00:52:15;100436.44;;;11.37
74915;BMP280;63475;45.140;-75.616;2023-04-24T00:53:18;100443.69;;;11.33
74915;BMP280;63475;45.140;-75.616;2023-04-24T00:54:19;100453.75;;;11.42
74915;BMP280;63475;45.140;-75.616;2023-04-24T00:55:20;100456.06;;;11.40
74915;BMP280;63475;45.140;-75.616;2023-04-24T00:56:21;100457.97;;;11.39
74915;BMP280;63475;45.140;-75.616;2023-04-24T00:57:22;100467.50;;;11.37
74915;BMP280;63475;45.140;-75.616;2023-04-24T00:58:24;100468.66;;;11.36
74915;BMP280;63475;45.140;-75.616;2023-04-24T00:59:25;100465.25;;;11.35
74915;BMP280;63475;45.140;-75.616;2023-04-24T01:00:26;100466.00;;;11.36
74915;BMP280;63475;45.140;-75.616;2023-04-24T01:01:27;100464.22;;;11.29
74915;BMP280;63475;45.140;-75.616;2023-04-24T01:02:28;100465.72;;;11.30
74915;BMP280;63475;45.140;-75.616;2023-04-24T01:03:30;100475.91;;;11.32
74915;BMP280;63475;45.140;-75.616;2023-04-24T01:04:38;100455.69;;;11.18
74915;BMP280;63475;45.140;-75.616;2023-04-24T01:05:39;100454.97;;;11.17
74915;BMP280;63475;45.140;-75.616;2023-04-24T01:06:43;100460.28;;;11.17
74915;BMP280;63475;45.140;-75.616;2023-04-24T01:07:46;100478.28;;;11.26
74915;BMP280;63475;45.140;-75.616;2023-04-24T01:08:49;100471.47;;;11.25
74915;BMP280;63475;45.140;-75.616;2023-04-24T01:09:50;100477.53;;;11.25
74915;BMP280;63475;45.140;-75.616;2023-04-24T01:10:52;100478.69;;;11.24
74915;BMP280;63475;45.140;-75.616;2023-04-24T01:11:54;100462.94;;;11.17
74915;BMP280;63475;45.140;-75.616;2023-04-24T01:12:55;100473.03;;;11.22
74915;BMP280;63475;45.140;-75.616;2023-04-24T01:13:56;100442.44;;;10.98
74915;BMP280;63475;45.140;-75.616;2023-04-24T01:14:58;100469.69;;;11.18
74915;BMP280;63475;45.140;-75.616;2023-04-24T01:15:59;100455.16;;;11.07
74915;BMP280;63475;45.140;-75.616;2023-04-24T01:17:00;100472.44;;;11.15
74915;BMP280;63475;45.140;-75.616;2023-04-24T01:18:02;100472.81;;;11.13
74915;BMP280;63475;45.140;-75.616;2023-04-24T01:19:04;100465.00;;;11.06
74915;BMP280;63475;45.140;-75.616;2023-04-24T01:20:06;100474.72;;;11.13
74915;BMP280;63475;45.140;-75.616;2023-04-24T01:21:08;100475.88;;;11.12
74915;BMP280;63475;45.140;-75.616;2023-04-24T01:22:15;100469.16;;;11.07
74915;BMP280;63475;45.140;-75.616;2023-04-24T01:23:17;100465.75;;;11.07
74915;BMP280;63475;45.140;-75.616;2023-04-24T01:24:18;100473.72;;;11.07
74915;BMP280;63475;45.140;-75.616;2023-04-24T01:25:20;100475.59;;;11.06
74915;BMP280;63475;45.140;-75.616;2023-04-24T01:26:22;100473.72;;;11.07
74915;BMP280;63475;45.140;-75.616;2023-04-24T01:27:23;100473.31;;;11.08
74915;BMP280;63475;45.140;-75.616;2023-04-24T01:28:24;100471.81;;;11.07
74915;BMP280;63475;45.140;-75.616;2023-04-24T01:29:25;100458.34;;;10.98
74915;BMP280;63475;45.140;-75.616;2023-04-24T01:30:26;100479.41;;;11.05
74915;BMP280;63475;45.140;-75.616;2023-04-24T01:31:27;100468.13;;;11.01
74915;BMP280;63475;45.140;-75.616;2023-04-24T01:32:29;100474.13;;;11.05
74915;BMP280;63475;45.140;-75.616;2023-04-24T01:33:30;100477.09;;;11.07
74915;BMP280;63475;45.140;-75.616;2023-04-24T01:34:31;100477.91;;;11.04
74915;BMP280;63475;45.140;-75.616;2023-04-24T01:35:33;100482.50;;;11.04
74915;BMP280;63475;45.140;-75.616;2023-04-24T01:36:34;100483.63;;;11.03
74915;BMP280;63475;45.140;-75.616;2023-04-24T01:37:36;100478.75;;;11.01
74915;BMP280;63475;45.140;-75.616;2023-04-24T01:38:40;100478.00;;;11.01
74915;BMP280;63475;45.140;-75.616;2023-04-24T01:39:40;100484.44;;;11.00
74915;BMP280;63475;45.140;-75.616;2023-04-24T01:40:41;100471.25;;;10.96
74915;BMP280;63475;45.140;-75.616;2023-04-24T01:41:43;100467.13;;;10.92
74915;BMP280;63475;45.140;-75.616;2023-04-24T01:42:43;100479.53;;;10.98
74915;BMP280;63475;45.140;-75.616;2023-04-24T01:43:45;100474.97;;;10.99
74915;BMP280;63475;45.140;-75.616;2023-04-24T01:44:47;100460.34;;;10.91
74915;BMP280;63475;45.140;-75.616;2023-04-24T01:45:47;100475.03;;;10.95
74915;BMP280;63475;45.140;-75.616;2023-04-24T01:46:48;100452.59;;;10.80
74915;BMP280;63475;45.140;-75.616;2023-04-24T01:47:50;100460.13;;;10.81
74915;BMP280;63475;45.140;-75.616;2023-04-24T01:48:51;100472.13;;;10.90
74915;BMP280;63475;45.140;-75.616;2023-04-24T01:49:52;100465.63;;;10.91
74915;BMP280;63475;45.140;-75.616;2023-04-24T01:50:53;100468.28;;;10.91
74915;BMP280;63475;45.140;-75.616;2023-04-24T01:51:54;100457.00;;;10.86
74915;BMP280;63475;45.140;-75.616;2023-04-24T01:52:55;100465.31;;;10.89
74915;BMP280;63475;45.140;-75.616;2023-04-24T01:53:56;100461.16;;;10.88
74915;BMP280;63475;45.140;-75.616;2023-04-24T01:54:59;100460.88;;;10.82
74915;BMP280;63475;45.140;-75.616;2023-04-24T01:56:00;100464.59;;;10.84
74915;BMP280;63475;45.140;-75.616;2023-04-24T01:57:02;100470.38;;;10.79
74915;BMP280;63475;45.140;-75.616;2023-04-24T01:58:03;100471.13;;;10.80
74915;BMP280;63475;45.140;-75.616;2023-04-24T01:59:05;100468.47;;;10.80
74915;BMP280;63475;45.140;-75.616;2023-04-24T02:00:07;100472.28;;;10.79
74915;BMP280;63475;45.140;-75.616;2023-04-24T02:01:08;100473.09;;;10.76
74915;BMP280;63475;45.140;-75.616;2023-04-24T02:02:15;100457.66;;;10.71
74915;BMP280;63475;45.140;-75.616;2023-04-24T02:03:16;100471.53;;;10.78
74915;BMP280;63475;45.140;-75.616;2023-04-24T02:04:16;100471.13;;;10.80
74915;BMP280;63475;45.140;-75.616;2023-04-24T02:05:17;100471.25;;;10.73
74915;BMP280;63475;45.140;-75.616;2023-04-24T02:06:18;100468.31;;;10.67
74915;BMP280;63475;45.140;-75.616;2023-04-24T02:07:20;100471.00;;;10.64
74915;BMP280;63475;45.140;-75.616;2023-04-24T02:08:21;100466.50;;;10.61
74915;BMP280;63475;45.140;-75.616;2023-04-24T02:09:21;100463.22;;;10.53
74915;BMP280;63475;45.140;-75.616;2023-04-24T02:10:23;100473.06;;;10.53
74915;BMP280;63475;45.140;-75.616;2023-04-24T02:11:26;100468.16;;;10.51
74915;BMP280;63475;45.140;-75.616;2023-04-24T02:12:27;100443.81;;;10.36
74915;BMP280;63475;45.140;-75.616;2023-04-24T02:13:28;100469.72;;;10.48
74915;BMP280;63475;45.140;-75.616;2023-04-24T02:14:29;100470.13;;;10.47
74915;BMP280;63475;45.140;-75.616;2023-04-24T02:15:30;100467.81;;;10.49
74915;BMP280;63475;45.140;-75.616;2023-04-24T02:16:31;100466.75;;;10.46
74915;BMP280;63475;45.140;-75.616;2023-04-24T02:17:33;100477.66;;;10.48
74915;BMP280;63475;45.140;-75.616;2023-04-24T02:18:34;100467.50;;;10.47
74915;BMP280;63475;45.140;-75.616;2023-04-24T02:19:35;100468.25;;;10.47
74915;BMP280;63475;45.140;-75.616;2023-04-24T02:20:36;100470.88;;;10.47
74915;BMP280;63475;45.140;-75.616;2023-04-24T02:21:37;100476.91;;;10.48
74915;BMP280;63475;45.140;-75.616;2023-04-24T02:22:38;100459.97;;;10.42
74915;BMP280;63475;45.140;-75.616;2023-04-24T02:23:39;100446.84;;;10.35
74915;BMP280;63475;45.140;-75.616;2023-04-24T02:24:40;100462.19;;;10.47
74915;BMP280;63475;45.140;-75.616;2023-04-24T02:25:41;100465.59;;;10.47
74915;BMP280;63475;45.140;-75.616;2023-04-24T02:26:41;100450.50;;;10.44
74915;BMP280;63475;45.140;-75.616;2023-04-24T02:27:42;100457.28;;;10.45
74915;BMP280;63475;45.140;-75.616;2023-04-24T02:28:43;100455.78;;;10.44
74915;BMP280;63475;45.140;-75.616;2023-04-24T02:29:44;100461.09;;;10.44
74915;BMP280;63475;45.140;-75.616;2023-04-24T02:30:45;100458.84;;;10.43
74915;BMP280;63475;45.140;-75.616;2023-04-24T02:31:46;100458.44;;;10.44
74915;BMP280;63475;45.140;-75.616;2023-04-24T02:32:47;100440.13;;;10.30
74915;BMP280;63475;45.140;-75.616;2023-04-24T02:33:48;100442.72;;;10.34
74915;BMP280;63475;45.140;-75.616;2023-04-24T02:34:49;100446.47;;;10.36
74915;BMP280;63475;45.140;-75.616;2023-04-24T02:35:50;100451.75;;;10.36
74915;BMP280;63475;45.140;-75.616;2023-04-24T02:36:51;100452.88;;;10.39
74915;BMP280;63475;45.140;-75.616;2023-04-24T02:37:54;100445.31;;;10.37
74915;BMP280;63475;45.140;-75.616;2023-04-24T02:38:55;100442.31;;;10.35
74915;BMP280;63475;45.140;-75.616;2023-04-24T02:39:55;100446.09;;;10.34
74915;BMP280;63475;45.140;-75.616;2023-04-24T02:40:56;100445.78;;;10.32
74915;BMP280;63475;45.140;-75.616;2023-04-24T02:41:57;100453.28;;;10.34
74915;BMP280;63475;45.140;-75.616;2023-04-24T02:42:58;100434.56;;;10.21
74915;BMP280;63475;45.140;-75.616;2023-04-24T02:43:59;100454.47;;;10.33
74915;BMP280;63475;45.140;-75.616;2023-04-24T02:45:00;100458.59;;;10.34
74915;BMP280;63475;45.140;-75.616;2023-04-24T02:46:01;100455.22;;;10.33
74915;BMP280;63475;45.140;-75.616;2023-04-24T02:47:04;100462.41;;;10.33
74915;BMP280;63475;45.140;-75.616;2023-04-24T02:48:05;100449.97;;;10.30
74915;BMP280;63475;45.140;-75.616;2023-04-24T02:49:05;100454.88;;;10.31
74915;BMP280;63475;45.140;-75.616;2023-04-24T02:50:07;100459.06;;;10.29
74915;BMP280;63475;45.140;-75.616;2023-04-24T02:51:08;100461.31;;;10.27
74915;BMP280;63475;45.140;-75.616;2023-04-24T02:52:10;100450.41;;;10.25
74915;BMP280;63475;45.140;-75.616;2023-04-24T02:53:11;100449.25;;;10.26
74915;BMP280;63475;45.140;-75.616;2023-04-24T02:54:12;100436.91;;;10.16
74915;BMP280;63475;45.140;-75.616;2023-04-24T02:55:13;100436.28;;;10.08
74915;BMP280;63475;45.140;-75.616;2023-04-24T02:56:13;100451.19;;;10.22
74915;BMP280;63475;45.140;-75.616;2023-04-24T02:57:14;100443.41;;;10.11
74915;BMP280;63475;45.140;-75.616;2023-04-24T02:58:15;100446.75;;;10.15
74915;BMP280;63475;45.140;-75.616;2023-04-24T02:59:17;100446.75;;;10.15
74915;BMP280;63475;45.140;-75.616;2023-04-24T03:00:18;100455.09;;;10.14
74915;BMP280;63475;45.140;-75.616;2023-04-24T03:01:19;100450.19;;;10.12
74915;BMP280;63475;45.140;-75.616;2023-04-24T03:02:20;100447.25;;;10.06
74915;BMP280;63475;45.140;-75.616;2023-04-24T03:03:22;100456.31;;;10.09
74915;BMP280;63475;45.140;-75.616;2023-04-24T03:04:23;100462.75;;;10.08
74915;BMP280;63475;45.140;-75.616;2023-04-24T03:05:23;100451.41;;;10.07
74915;BMP280;63475;45.140;-75.616;2023-04-24T03:06:24;100456.69;;;10.07
74915;BMP280;63475;45.140;-75.616;2023-04-24T03:07:27;100452.94;;;10.05
74915;BMP280;63475;45.140;-75.616;2023-04-24T03:08:28;100448.41;;;10.05
74915;BMP280;63475;45.140;-75.616;2023-04-24T03:09:29;100450.28;;;10.05
74915;BMP280;63475;45.140;-75.616;2023-04-24T03:10:30;100451.84;;;10.02
74915;BMP280;63475;45.140;-75.616;2023-04-24T03:11:30;100455.25;;;10.03
74915;BMP280;63475;45.140;-75.616;2023-04-24T03:12:32;100442.53;;;9.94
74915;BMP280;63475;45.140;-75.616;2023-04-24T03:13:32;100449.63;;;9.97
74915;BMP280;63475;45.140;-75.616;2023-04-24T03:14:33;100447.41;;;9.96
74915;BMP280;63475;45.140;-75.616;2023-04-24T03:15:35;100426.00;;;9.83
74915;BMP280;63475;45.140;-75.616;2023-04-24T03:16:36;100448.56;;;9.95
74915;BMP280;63475;45.140;-75.616;2023-04-24T03:17:37;100442.53;;;9.91
74915;BMP280;63475;45.140;-75.616;2023-04-24T03:18:38;100448.22;;;9.89
74915;BMP280;63475;45.140;-75.616;2023-04-24T03:19:39;100457.66;;;9.90
74915;BMP280;63475;45.140;-75.616;2023-04-24T03:20:40;100451.59;;;9.93
74915;BMP280;63475;45.140;-75.616;2023-04-24T03:21:41;100460.66;;;9.92
74915;BMP280;63475;45.140;-75.616;2023-04-24T03:22:42;100460.28;;;9.90
74915;BMP280;63475;45.140;-75.616;2023-04-24T03:23:43;100454.31;;;9.86
74915;BMP280;63475;45.140;-75.616;2023-04-24T03:24:44;100432.19;;;9.73
74915;BMP280;63475;45.140;-75.616;2023-04-24T03:25:45;100460.00;;;9.85
74915;BMP280;63475;45.140;-75.616;2023-04-24T03:26:46;100443.84;;;9.76
74915;BMP280;63475;45.140;-75.616;2023-04-24T03:27:47;100454.41;;;9.79
74915;BMP280;63475;45.140;-75.616;2023-04-24T03:28:48;100447.31;;;9.72
74915;BMP280;63475;45.140;-75.616;2023-04-24T03:29:49;100459.31;;;9.81
74915;BMP280;63475;45.140;-75.616;2023-04-24T03:30:54;100460.84;;;9.78
74915;BMP280;63475;45.140;-75.616;2023-04-24T03:31:55;100456.69;;;9.77
74915;BMP280;63475;45.140;-75.616;2023-04-24T03:32:56;100455.25;;;9.72
74915;BMP280;63475;45.140;-75.616;2023-04-24T03:33:57;100463.88;;;9.77
74915;BMP280;63475;45.140;-75.616;2023-04-24T03:34:57;100465.78;;;9.76
74915;BMP280;63475;45.140;-75.616;2023-04-24T03:35:58;100456.00;;;9.73
74915;BMP280;63475;45.140;-75.616;2023-04-24T03:36:59;100458.22;;;9.74
74915;BMP280;63475;45.140;-75.616;2023-04-24T03:38:00;100456.00;;;9.73
74915;BMP280;63475;45.140;-75.616;2023-04-24T03:39:01;100462.44;;;9.72
74915;BMP280;63475;45.140;-75.616;2023-04-24T03:40:02;100457.19;;;9.68
74915;BMP280;63475;45.140;-75.616;2023-04-24T03:41:04;100437.69;;;9.55
74915;BMP280;63475;45.140;-75.616;2023-04-24T03:42:04;100450.09;;;9.62
74915;BMP280;63475;45.140;-75.616;2023-04-24T03:43:05;100458.31;;;9.67
74915;BMP280;63475;45.140;-75.616;2023-04-24T03:44:06;100460.97;;;9.67
74915;BMP280;63475;45.140;-75.616;2023-04-24T03:45:08;100456.81;;;9.66
74915;BMP280;63475;45.140;-75.616;2023-04-24T03:46:09;100436.19;;;9.51
74915;BMP280;63475;45.140;-75.616;2023-04-24T03:47:10;100448.25;;;9.55
74915;BMP280;63475;45.140;-75.616;2023-04-24T03:48:11;100460.63;;;9.65
74915;BMP280;63475;45.140;-75.616;2023-04-24T03:49:12;100460.22;;;9.67
74915;BMP280;63475;45.140;-75.616;2023-04-24T03:50:13;100462.53;;;9.65
74915;BMP280;63475;45.140;-75.616;2023-04-24T03:51:14;100462.56;;;9.61
74915;BMP280;63475;45.140;-75.616;2023-04-24T03:52:15;100456.50;;;9.61
74915;BMP280;63475;45.140;-75.616;2023-04-24T03:53:16;100462.56;;;9.61
74915;BMP280;63475;45.140;-75.616;2023-04-24T03:54:17;100452.72;;;9.58
74915;BMP280;63475;45.140;-75.616;2023-04-24T03:55:18;100440.03;;;9.46
74915;BMP280;63475;45.140;-75.616;2023-04-24T03:56:19;100452.78;;;9.55
74915;BMP280;63475;45.140;-75.616;2023-04-24T03:57:20;100438.19;;;9.43
74915;BMP280;63475;45.140;-75.616;2023-04-24T03:58:21;100465.94;;;9.58
74915;BMP280;63475;45.140;-75.616;2023-04-24T03:59:22;100463.31;;;9.58
74915;BMP280;63475;45.140;-75.616;2023-04-24T04:00:23;100466.38;;;9.57
74915;BMP280;63475;45.140;-75.616;2023-04-24T04:01:23;100456.59;;;9.50
74915;BMP280;63475;45.140;-75.616;2023-04-24T04:02:25;100458.06;;;9.55
74915;BMP280;63475;45.140;-75.616;2023-04-24T04:03:25;100454.38;;;9.49
74915;BMP280;63475;45.140;-75.616;2023-04-24T04:04:26;100463.75;;;9.53
74915;BMP280;63475;45.140;-75.616;2023-04-24T04:05:27;100461.50;;;9.52
74915;BMP280;63475;45.140;-75.616;2023-04-24T04:06:28;100463.00;;;9.53
74915;BMP280;63475;45.140;-75.616;2023-04-24T04:07:31;100440.16;;;9.35
74915;BMP280;63475;45.140;-75.616;2023-04-24T04:08:32;100451.00;;;9.45
74915;BMP280;63475;45.140;-75.616;2023-04-24T04:09:32;100463.38;;;9.51
74915;BMP280;63475;45.140;-75.616;2023-04-24T04:10:34;100445.44;;;9.35
74915;BMP280;63475;45.140;-75.616;2023-04-24T04:11:35;100456.66;;;9.47
74915;BMP280;63475;45.140;-75.616;2023-04-24T04:12:36;100460.06;;;9.47
74915;BMP280;63475;45.140;-75.616;2023-04-24T04:13:37;100445.84;;;9.34
74915;BMP280;63475;45.140;-75.616;2023-04-24T04:14:37;100456.66;;;9.47
74915;BMP280;63475;45.140;-75.616;2023-04-24T04:15:38;100455.91;;;9.46
74915;BMP280;63475;45.140;-75.616;2023-04-24T04:16:39;100455.91;;;9.46
74915;BMP280;63475;45.140;-75.616;2023-04-24T04:17:40;100452.97;;;9.41
74915;BMP280;63475;45.140;-75.616;2023-04-24T04:18:42;100451.75;;;9.45
74915;BMP280;63475;45.140;-75.616;2023-04-24T04:19:43;100464.63;;;9.43
74915;BMP280;63475;45.140;-75.616;2023-04-24T04:20:43;100458.56;;;9.43
74915;BMP280;63475;45.140;-75.616;2023-04-24T04:21:44;100462.72;;;9.44
74915;BMP280;63475;45.140;-75.616;2023-04-24T04:22:46;100452.59;;;9.39
74915;BMP280;63475;45.140;-75.616;2023-04-24T04:23:47;100436.44;;;9.29
74915;BMP280;63475;45.140;-75.616;2023-04-24T04:24:48;100453.72;;;9.41
74915;BMP280;63475;45.140;-75.616;2023-04-24T04:25:51;100453.34;;;9.39
74915;BMP280;63475;45.140;-75.616;2023-04-24T04:26:52;100443.56;;;9.36
74915;BMP280;63475;45.140;-75.616;2023-04-24T04:27:56;100454.50;;;9.38
74915;BMP280;63475;45.140;-75.616;2023-04-24T04:29:00;100449.97;;;9.35
74915;BMP280;63475;45.140;-75.616;2023-04-24T04:30:04;100462.06;;;9.36
74915;BMP280;63475;45.140;-75.616;2023-04-24T04:31:06;100458.72;;;9.32
74915;BMP280;63475;45.140;-75.616;2023-04-24T04:32:08;100450.78;;;9.32
74915;BMP280;63475;45.140;-75.616;2023-04-24T04:33:09;100450.03;;;9.31
74915;BMP280;63475;45.140;-75.616;2023-04-24T04:34:11;100453.44;;;9.32
74915;BMP280;63475;45.140;-75.616;2023-04-24T04:35:13;100443.28;;;9.27
74915;BMP280;63475;45.140;-75.616;2023-04-24T04:36:13;100448.88;;;9.32
74915;BMP280;63475;45.140;-75.616;2023-04-24T04:37:14;100452.69;;;9.31
74915;BMP280;63475;45.140;-75.616;2023-04-24T04:38:16;100448.97;;;9.25
74915;BMP280;63475;45.140;-75.616;2023-04-24T04:39:17;100454.97;;;9.29
74915;BMP280;63475;45.140;-75.616;2023-04-24T04:40:19;100435.84;;;9.15
74915;BMP280;63475;45.140;-75.616;2023-04-24T04:41:20;100456.84;;;9.29
74915;BMP280;63475;45.140;-75.616;2023-04-24T04:42:20;100435.84;;;9.15
74915;BMP280;63475;45.140;-75.616;2023-04-24T04:43:23;100459.88;;;9.27
74915;BMP280;63475;45.140;-75.616;2023-04-24T04:44:24;100455.72;;;9.26
74915;BMP280;63475;45.140;-75.616;2023-04-24T04:45:25;100448.22;;;9.21
74915;BMP280;63475;45.140;-75.616;2023-04-24T04:46:27;100458.78;;;9.25
74915;BMP280;63475;45.140;-75.616;2023-04-24T04:47:28;100447.84;;;9.19
74915;BMP280;63475;45.140;-75.616;2023-04-24T04:48:32;100451.63;;;9.22
74915;BMP280;63475;45.140;-75.616;2023-04-24T04:49:33;100452.38;;;9.22
74915;BMP280;63475;45.140;-75.616;2023-04-24T04:50:35;100454.66;;;9.20
74915;BMP280;63475;45.140;-75.616;2023-04-24T04:51:36;100455.03;;;9.19
74915;BMP280;63475;45.140;-75.616;2023-04-24T04:52:37;100444.91;;;9.14
74915;BMP280;63475;45.140;-75.616;2023-04-24T04:53:38;100454.31;;;9.18
74915;BMP280;63475;45.140;-75.616;2023-04-24T04:54:39;100458.09;;;9.14
74915;BMP280;63475;45.140;-75.616;2023-04-24T04:55:40;100453.59;;;9.11
74915;BMP280;63475;45.140;-75.616;2023-04-24T04:56:41;100452.13;;;9.10
74915;BMP280;63475;45.140;-75.616;2023-04-24T04:57:42;100460.81;;;9.07
74915;BMP280;63475;45.140;-75.616;2023-04-24T04:58:43;100449.53;;;9.03
74915;BMP280;63475;45.140;-75.616;2023-04-24T04:59:44;100459.75;;;9.01
74915;BMP280;63475;45.140;-75.616;2023-04-24T05:00:45;100456.31;;;9.04
74915;BMP280;63475;45.140;-75.616;2023-04-24T05:01:46;100464.28;;;9.00
74915;BMP280;63475;45.140;-75.616;2023-04-24T05:02:47;100462.41;;;9.01
74915;BMP280;63475;45.140;-75.616;2023-04-24T05:03:48;100469.13;;;9.09
74915;BMP280;63475;45.140;-75.616;2023-04-24T05:04:49;100470.66;;;9.03
74915;BMP280;63475;45.140;-75.616;2023-04-24T05:05:50;100456.75;;;8.98
74915;BMP280;63475;45.140;-75.616;2023-04-24T05:06:51;100471.84;;;8.98
74915;BMP280;63475;45.140;-75.616;2023-04-24T05:07:52;100475.25;;;8.98
74915;BMP280;63475;45.140;-75.616;2023-04-24T05:08:53;100467.72;;;8.97
74915;BMP280;63475;45.140;-75.616;2023-04-24T05:09:57;100466.59;;;8.94
74915;BMP280;63475;45.140;-75.616;2023-04-24T05:10:58;100470.41;;;8.93
74915;BMP280;63475;45.140;-75.616;2023-04-24T05:11:59;100465.44;;;8.95
74915;BMP280;63475;45.140;-75.616;2023-04-24T05:13:00;100462.81;;;8.95
74915;BMP280;63475;45.140;-75.616;2023-04-24T05:14:01;100457.56;;;8.92
74915;BMP280;63475;45.140;-75.616;2023-04-24T05:15:03;100439.16;;;8.81
74915;BMP280;63475;45.140;-75.616;2023-04-24T05:16:07;100465.44;;;8.99
74915;BMP280;63475;45.140;-75.616;2023-04-24T05:17:08;100454.88;;;8.99
74915;BMP280;63475;45.140;-75.616;2023-04-24T05:18:09;100457.50;;;8.99
74915;BMP280;63475;45.140;-75.616;2023-04-24T05:19:10;100455.63;;;8.96
74915;BMP280;63475;45.140;-75.616;2023-04-24T05:20:12;100450.75;;;8.94
74915;BMP280;63475;45.140;-75.616;2023-04-24T05:21:13;100446.63;;;8.93
74915;BMP280;63475;45.140;-75.616;2023-04-24T05:22:14;100459.47;;;8.91
74915;BMP280;63475;45.140;-75.616;2023-04-24T05:23:15;100445.19;;;8.82
74915;BMP280;63475;45.140;-75.616;2023-04-24T05:24:16;100456.81;;;8.88
74915;BMP280;63475;45.140;-75.616;2023-04-24T05:25:17;100455.31;;;8.90
74915;BMP280;63475;45.140;-75.616;2023-04-24T05:26:18;100432.34;;;8.80
74915;BMP280;63475;45.140;-75.616;2023-04-24T05:27:20;100452.69;;;8.90
74915;BMP280;63475;45.140;-75.616;2023-04-24T05:28:21;100452.28;;;8.88
74915;BMP280;63475;45.140;-75.616;2023-04-24T05:29:21;100452.28;;;8.88
74915;BMP280;63475;45.140;-75.616;2023-04-24T05:30:22;100445.50;;;8.87
74915;BMP280;63475;45.140;-75.616;2023-04-24T05:31:23;100447.00;;;8.88
74915;BMP280;63475;45.140;-75.616;2023-04-24T05:32:25;100445.88;;;8.89
74915;BMP280;63475;45.140;-75.616;2023-04-24T05:33:27;100439.06;;;8.88
74915;BMP280;63475;45.140;-75.616;2023-04-24T05:34:28;100437.19;;;8.89
74915;BMP280;63475;45.140;-75.616;2023-04-24T05:35:29;100422.53;;;8.81
74915;BMP280;63475;45.140;-75.616;2023-04-24T05:36:30;100418.44;;;8.76
74915;BMP280;63475;45.140;-75.616;2023-04-24T05:37:31;100435.31;;;8.89
74915;BMP280;63475;45.140;-75.616;2023-04-24T05:38:32;100433.09;;;8.84
74915;BMP280;63475;45.140;-75.616;2023-04-24T05:39:34;100434.53;;;8.89
74915;BMP280;63475;45.140;-75.616;2023-04-24T05:40:35;100434.56;;;8.85